sensor_id;sensor_type;location;lat;lon;timestamp;temperature;humidity
61253;DHT22;47127;47.516;8.596;2022-11-20T00:00:28;6.00;99.90
61253;DHT22;47127;47.516;8.596;2022-11-20T00:02:53;5.90;99.90
61253;DHT22;47127;47.516;8.596;2022-11-20T00:05:20;6.00;99.90
61253;DHT22;47127;47.516;8.596;2022-11-20T00:07:46;6.20;99.90
61253;DHT22;47127;47.516;8.596;2022-11-20T00:10:11;6.40;99.90
61253;DHT22;47127;47.516;8.596;2022-11-20T00:12:37;6.40;99.90
61253;DHT22;47127;47.516;8.596;2022-11-20T00:15:03;6.50;99.90
61253;DHT22;47127;47.516;8.596;2022-11-20T00:17:29;6.60;99.90
61253;DHT22;47127;47.516;8.596;2022-11-20T00:19:54;6.60;99.90
61253;DHT22;47127;47.516;8.596;2022-11-20T00:22:19;6.80;99.90
61253;DHT22;47127;47.516;8.596;2022-11-20T00:24:45;6.80;99.90
61253;DHT22;47127;47.516;8.596;2022-11-20T00:27:10;6.80;99.90
61253;DHT22;47127;47.516;8.596;2022-11-20T00:29:36;6.90;99.90
61253;DHT22;47127;47.516;8.596;2022-11-20T00:32:01;6.90;99.90
61253;DHT22;47127;47.516;8.596;2022-11-20T00:34:27;6.80;99.90
61253;DHT22;47127;47.516;8.596;2022-11-20T00:36:52;6.70;99.90
61253;DHT22;47127;47.516;8.596;2022-11-20T00:39:18;6.40;99.90
61253;DHT22;47127;47.516;8.596;2022-11-20T00:41:43;6.40;99.90
61253;DHT22;47127;47.516;8.596;2022-11-20T00:44:08;6.30;99.90
61253;DHT22;47127;47.516;8.596;2022-11-20T00:46:34;6.40;99.90
61253;DHT22;47127;47.516;8.596;2022-11-20T00:48:59;6.50;99.90
61253;DHT22;47127;47.516;8.596;2022-11-20T00:51:25;6.50;99.90
61253;DHT22;47127;47.516;8.596;2022-11-20T00:53:51;6.50;99.90
61253;DHT22;47127;47.516;8.596;2022-11-20T00:56:17;6.60;99.90
61253;DHT22;47127;47.516;8.596;2022-11-20T00:58:44;6.60;99.90
61253;DHT22;47127;47.516;8.596;2022-11-20T01:03:39;6.60;99.90
61253;DHT22;47127;47.516;8.596;2022-11-20T01:06:06;6.70;99.90
61253;DHT22;47127;47.516;8.596;2022-11-20T01:08:35;6.70;99.90
61253;DHT22;47127;47.516;8.596;2022-11-20T01:11:01;6.80;99.90
61253;DHT22;47127;47.516;8.596;2022-11-20T01:13:27;6.80;99.90
61253;DHT22;47127;47.516;8.596;2022-11-20T01:16:09;6.80;99.90
61253;DHT22;47127;47.516;8.596;2022-11-20T01:18:35;6.70;99.90
61253;DHT22;47127;47.516;8.596;2022-11-20T01:21:01;6.70;99.90
61253;DHT22;47127;47.516;8.596;2022-11-20T01:23:30;6.80;99.90
61253;DHT22;47127;47.516;8.596;2022-11-20T01:25:55;6.70;99.90
61253;DHT22;47127;47.516;8.596;2022-11-20T01:28:20;6.60;99.90
61253;DHT22;47127;47.516;8.596;2022-11-20T01:30:46;6.50;99.90
61253;DHT22;47127;47.516;8.596;2022-11-20T01:33:11;6.50;99.90
61253;DHT22;47127;47.516;8.596;2022-11-20T01:35:37;6.50;99.90
61253;DHT22;47127;47.516;8.596;2022-11-20T01:38:02;6.50;99.90
61253;DHT22;47127;47.516;8.596;2022-11-20T01:40:28;6.40;99.90
61253;DHT22;47127;47.516;8.596;2022-11-20T01:42:57;6.30;99.90
61253;DHT22;47127;47.516;8.596;2022-11-20T01:50:57;6.60;99.90
61253;DHT22;47127;47.516;8.596;2022-11-20T01:53:25;6.70;99.90
61253;DHT22;47127;47.516;8.596;2022-11-20T01:55:51;6.70;99.90
61253;DHT22;47127;47.516;8.596;2022-11-20T01:58:18;6.80;99.90
61253;DHT22;47127;47.516;8.596;2022-11-20T02:00:45;6.90;99.90
61253;DHT22;47127;47.516;8.596;2022-11-20T02:03:11;6.90;99.90
61253;DHT22;47127;47.516;8.596;2022-11-20T02:08:03;7.00;99.90
61253;DHT22;47127;47.516;8.596;2022-11-20T02:10:29;6.90;99.90
61253;DHT22;47127;47.516;8.596;2022-11-20T02:12:55;7.00;99.90
61253;DHT22;47127;47.516;8.596;2022-11-20T02:15:39;7.00;99.90
61253;DHT22;47127;47.516;8.596;2022-11-20T02:18:05;7.00;99.90
61253;DHT22;47127;47.516;8.596;2022-11-20T02:20:31;7.00;99.90
61253;DHT22;47127;47.516;8.596;2022-11-20T02:22:57;7.10;99.90
61253;DHT22;47127;47.516;8.596;2022-11-20T02:25:24;7.10;99.90
61253;DHT22;47127;47.516;8.596;2022-11-20T02:27:51;7.20;99.90
61253;DHT22;47127;47.516;8.596;2022-11-20T02:30:16;7.30;99.90
61253;DHT22;47127;47.516;8.596;2022-11-20T02:32:42;7.30;99.90
61253;DHT22;47127;47.516;8.596;2022-11-20T02:35:09;7.30;99.90
61253;DHT22;47127;47.516;8.596;2022-11-20T02:37:35;7.20;99.90
61253;DHT22;47127;47.516;8.596;2022-11-20T02:40:01;7.30;99.90
61253;DHT22;47127;47.516;8.596;2022-11-20T02:42:26;7.20;99.90
61253;DHT22;47127;47.516;8.596;2022-11-20T02:44:52;7.20;99.90
61253;DHT22;47127;47.516;8.596;2022-11-20T02:47:17;7.20;99.90
61253;DHT22;47127;47.516;8.596;2022-11-20T02:49:43;7.30;99.90
61253;DHT22;47127;47.516;8.596;2022-11-20T02:52:08;7.30;99.90
61253;DHT22;47127;47.516;8.596;2022-11-20T02:54:34;7.30;99.90
61253;DHT22;47127;47.516;8.596;2022-11-20T02:56:59;7.30;99.90
61253;DHT22;47127;47.516;8.596;2022-11-20T02:59:24;7.20;99.90
61253;DHT22;47127;47.516;8.596;2022-11-20T03:01:50;7.20;99.90
61253;DHT22;47127;47.516;8.596;2022-11-20T03:04:15;7.10;99.90
61253;DHT22;47127;47.516;8.596;2022-11-20T03:06:41;7.20;99.90
61253;DHT22;47127;47.516;8.596;2022-11-20T03:09:06;7.20;99.90
61253;DHT22;47127;47.516;8.596;2022-11-20T03:11:32;7.30;99.90
61253;DHT22;47127;47.516;8.596;2022-11-20T03:13:57;7.30;99.90
61253;DHT22;47127;47.516;8.596;2022-11-20T03:16:23;7.30;99.90
61253;DHT22;47127;47.516;8.596;2022-11-20T03:18:48;7.40;99.90
61253;DHT22;47127;47.516;8.596;2022-11-20T03:21:14;7.30;99.90
61253;DHT22;47127;47.516;8.596;2022-11-20T03:23:40;7.30;99.90
61253;DHT22;47127;47.516;8.596;2022-11-20T03:26:13;7.30;99.90
61253;DHT22;47127;47.516;8.596;2022-11-20T03:28:40;7.30;99.90
61253;DHT22;47127;47.516;8.596;2022-11-20T03:31:06;7.30;99.90
61253;DHT22;47127;47.516;8.596;2022-11-20T03:33:32;7.30;99.90
61253;DHT22;47127;47.516;8.596;2022-11-20T03:36:01;7.30;99.90
61253;DHT22;47127;47.516;8.596;2022-11-20T03:38:28;7.20;99.90
61253;DHT22;47127;47.516;8.596;2022-11-20T03:40:57;7.20;99.90
61253;DHT22;47127;47.516;8.596;2022-11-20T03:43:22;7.30;99.90
61253;DHT22;47127;47.516;8.596;2022-11-20T03:45:48;7.30;99.90
61253;DHT22;47127;47.516;8.596;2022-11-20T03:48:13;7.30;99.90
61253;DHT22;47127;47.516;8.596;2022-11-20T03:50:39;7.30;99.90
61253;DHT22;47127;47.516;8.596;2022-11-20T03:53:04;7.30;99.90
61253;DHT22;47127;47.516;8.596;2022-11-20T03:55:30;7.20;99.90
61253;DHT22;47127;47.516;8.596;2022-11-20T03:57:55;7.20;99.90
61253;DHT22;47127;47.516;8.596;2022-11-20T04:00:21;7.30;99.90
61253;DHT22;47127;47.516;8.596;2022-11-20T04:02:46;7.30;99.90
61253;DHT22;47127;47.516;8.596;2022-11-20T04:05:12;7.20;99.90
61253;DHT22;47127;47.516;8.596;2022-11-20T04:07:37;7.20;99.90
61253;DHT22;47127;47.516;8.596;2022-11-20T04:10:03;7.20;99.90
61253;DHT22;47127;47.516;8.596;2022-11-20T04:12:31;7.20;99.90
61253;DHT22;47127;47.516;8.596;2022-11-20T04:14:56;7.20;99.90
61253;DHT22;47127;47.516;8.596;2022-11-20T04:17:22;7.10;99.90
61253;DHT22;47127;47.516;8.596;2022-11-20T04:19:47;7.10;99.90
61253;DHT22;47127;47.516;8.596;2022-11-20T04:22:13;7.00;99.90
61253;DHT22;47127;47.516;8.596;2022-11-20T04:24:38;7.00;99.90
61253;DHT22;47127;47.516;8.596;2022-11-20T04:27:03;7.00;99.90
61253;DHT22;47127;47.516;8.596;2022-11-20T04:29:29;7.00;99.90
61253;DHT22;47127;47.516;8.596;2022-11-20T04:31:54;7.00;99.90
61253;DHT22;47127;47.516;8.596;2022-11-20T04:34:20;7.10;99.90
61253;DHT22;47127;47.516;8.596;2022-11-20T04:36:45;7.00;99.90
61253;DHT22;47127;47.516;8.596;2022-11-20T04:39:11;7.10;99.90
61253;DHT22;47127;47.516;8.596;2022-11-20T04:41:37;7.10;99.90
61253;DHT22;47127;47.516;8.596;2022-11-20T04:44:03;7.10;99.90
61253;DHT22;47127;47.516;8.596;2022-11-20T04:46:30;7.10;99.90
61253;DHT22;47127;47.516;8.596;2022-11-20T04:48:55;7.10;99.90
61253;DHT22;47127;47.516;8.596;2022-11-20T04:51:21;7.00;99.90
61253;DHT22;47127;47.516;8.596;2022-11-20T04:53:47;6.90;99.90
61253;DHT22;47127;47.516;8.596;2022-11-20T04:56:13;6.90;99.90
61253;DHT22;47127;47.516;8.596;2022-11-20T04:58:39;6.90;99.90
61253;DHT22;47127;47.516;8.596;2022-11-20T05:01:09;6.80;99.90
61253;DHT22;47127;47.516;8.596;2022-11-20T05:03:35;6.80;99.90
61253;DHT22;47127;47.516;8.596;2022-11-20T05:06:01;6.70;99.90
61253;DHT22;47127;47.516;8.596;2022-11-20T05:08:27;6.70;99.90
61253;DHT22;47127;47.516;8.596;2022-11-20T05:10:52;6.80;99.90
61253;DHT22;47127;47.516;8.596;2022-11-20T05:13:18;6.70;99.90
61253;DHT22;47127;47.516;8.596;2022-11-20T05:15:43;6.70;99.90
61253;DHT22;47127;47.516;8.596;2022-11-20T05:18:09;6.70;99.90
61253;DHT22;47127;47.516;8.596;2022-11-20T05:20:34;6.60;99.90
61253;DHT22;47127;47.516;8.596;2022-11-20T05:23:01;6.40;99.90
61253;DHT22;47127;47.516;8.596;2022-11-20T05:25:27;6.30;99.90
61253;DHT22;47127;47.516;8.596;2022-11-20T05:27:52;6.30;99.90
61253;DHT22;47127;47.516;8.596;2022-11-20T05:30:18;6.30;99.90
61253;DHT22;47127;47.516;8.596;2022-11-20T05:32:43;6.30;99.90
61253;DHT22;47127;47.516;8.596;2022-11-20T05:35:09;6.20;99.90
61253;DHT22;47127;47.516;8.596;2022-11-20T05:37:34;6.20;99.90
61253;DHT22;47127;47.516;8.596;2022-11-20T05:40:00;6.20;99.90
61253;DHT22;47127;47.516;8.596;2022-11-20T05:42:25;6.20;99.90
61253;DHT22;47127;47.516;8.596;2022-11-20T05:45:00;6.20;99.90
61253;DHT22;47127;47.516;8.596;2022-11-20T05:47:26;6.20;99.90
61253;DHT22;47127;47.516;8.596;2022-11-20T05:49:52;6.30;99.90
61253;DHT22;47127;47.516;8.596;2022-11-20T05:52:17;6.30;99.90
61253;DHT22;47127;47.516;8.596;2022-11-20T05:54:43;6.20;99.90
61253;DHT22;47127;47.516;8.596;2022-11-20T05:57:08;6.20;99.90
61253;DHT22;47127;47.516;8.596;2022-11-20T05:59:34;6.30;99.90
61253;DHT22;47127;47.516;8.596;2022-11-20T06:01:59;6.30;99.90
61253;DHT22;47127;47.516;8.596;2022-11-20T06:04:25;6.30;99.90
61253;DHT22;47127;47.516;8.596;2022-11-20T06:06:50;6.30;99.90
61253;DHT22;47127;47.516;8.596;2022-11-20T06:09:16;6.40;99.90
61253;DHT22;47127;47.516;8.596;2022-11-20T06:11:41;6.40;99.90
61253;DHT22;47127;47.516;8.596;2022-11-20T06:14:06;6.60;99.90
61253;DHT22;47127;47.516;8.596;2022-11-20T06:16:32;6.70;99.90
61253;DHT22;47127;47.516;8.596;2022-11-20T06:18:57;6.60;99.90
61253;DHT22;47127;47.516;8.596;2022-11-20T06:21:23;6.60;99.90
61253;DHT22;47127;47.516;8.596;2022-11-20T06:23:49;6.70;99.90
61253;DHT22;47127;47.516;8.596;2022-11-20T06:26:15;6.70;99.90
61253;DHT22;47127;47.516;8.596;2022-11-20T06:28:41;6.60;99.90
61253;DHT22;47127;47.516;8.596;2022-11-20T06:31:07;6.70;99.90
61253;DHT22;47127;47.516;8.596;2022-11-20T06:33:33;6.60;99.90
61253;DHT22;47127;47.516;8.596;2022-11-20T06:35:59;6.70;99.90
61253;DHT22;47127;47.516;8.596;2022-11-20T06:38:25;6.70;99.90
61253;DHT22;47127;47.516;8.596;2022-11-20T06:40:50;6.60;99.90
61253;DHT22;47127;47.516;8.596;2022-11-20T06:43:16;6.70;99.90
61253;DHT22;47127;47.516;8.596;2022-11-20T06:45:41;6.70;99.90
61253;DHT22;47127;47.516;8.596;2022-11-20T06:48:07;6.70;99.90
61253;DHT22;47127;47.516;8.596;2022-11-20T06:50:33;6.70;99.90
61253;DHT22;47127;47.516;8.596;2022-11-20T06:53:01;6.70;99.90
61253;DHT22;47127;47.516;8.596;2022-11-20T06:55:28;6.70;99.90
61253;DHT22;47127;47.516;8.596;2022-11-20T06:57:53;6.70;99.90
61253;DHT22;47127;47.516;8.596;2022-11-20T07:00:18;6.70;99.90
61253;DHT22;47127;47.516;8.596;2022-11-20T07:02:44;6.70;99.90
61253;DHT22;47127;47.516;8.596;2022-11-20T07:05:09;6.70;99.90
61253;DHT22;47127;47.516;8.596;2022-11-20T07:07:35;6.80;99.90
61253;DHT22;47127;47.516;8.596;2022-11-20T07:10:00;6.80;99.90
61253;DHT22;47127;47.516;8.596;2022-11-20T07:12:26;6.80;99.90
61253;DHT22;47127;47.516;8.596;2022-11-20T07:14:51;6.80;99.90
61253;DHT22;47127;47.516;8.596;2022-11-20T07:17:16;6.70;99.90
61253;DHT22;47127;47.516;8.596;2022-11-20T07:19:42;6.70;99.90
61253;DHT22;47127;47.516;8.596;2022-11-20T07:22:08;6.80;99.90
61253;DHT22;47127;47.516;8.596;2022-11-20T07:24:33;6.80;99.90
61253;DHT22;47127;47.516;8.596;2022-11-20T07:27:00;6.70;99.90
61253;DHT22;47127;47.516;8.596;2022-11-20T07:29:25;6.70;99.90
61253;DHT22;47127;47.516;8.596;2022-11-20T07:31:51;6.80;99.90
61253;DHT22;47127;47.516;8.596;2022-11-20T07:34:16;6.70;99.90
61253;DHT22;47127;47.516;8.596;2022-11-20T07:36:42;6.70;99.90
61253;DHT22;47127;47.516;8.596;2022-11-20T07:39:07;6.80;99.90
61253;DHT22;47127;47.516;8.596;2022-11-20T07:41:33;6.80;99.90
61253;DHT22;47127;47.516;8.596;2022-11-20T07:43:58;6.80;99.90
61253;DHT22;47127;47.516;8.596;2022-11-20T07:46:24;6.70;99.90
61253;DHT22;47127;47.516;8.596;2022-11-20T07:48:49;6.70;99.90
61253;DHT22;47127;47.516;8.596;2022-11-20T07:51:14;6.70;99.90
61253;DHT22;47127;47.516;8.596;2022-11-20T07:53:40;6.80;99.90
61253;DHT22;47127;47.516;8.596;2022-11-20T07:56:05;6.80;99.90
61253;DHT22;47127;47.516;8.596;2022-11-20T07:58:31;6.90;99.90
61253;DHT22;47127;47.516;8.596;2022-11-20T08:01:02;7.00;99.90
61253;DHT22;47127;47.516;8.596;2022-11-20T08:03:27;7.10;99.90
61253;DHT22;47127;47.516;8.596;2022-11-20T08:05:52;7.10;99.90
61253;DHT22;47127;47.516;8.596;2022-11-20T08:08:18;7.10;99.90
61253;DHT22;47127;47.516;8.596;2022-11-20T08:10:43;7.00;99.90
61253;DHT22;47127;47.516;8.596;2022-11-20T08:13:09;6.90;99.90
61253;DHT22;47127;47.516;8.596;2022-11-20T08:15:53;6.80;99.90
61253;DHT22;47127;47.516;8.596;2022-11-20T08:18:19;6.90;99.90
61253;DHT22;47127;47.516;8.596;2022-11-20T08:20:44;7.00;99.90
61253;DHT22;47127;47.516;8.596;2022-11-20T08:23:09;7.10;99.90
61253;DHT22;47127;47.516;8.596;2022-11-20T08:25:35;7.30;99.90
61253;DHT22;47127;47.516;8.596;2022-11-20T08:28:02;7.40;99.90
61253;DHT22;47127;47.516;8.596;2022-11-20T08:30:28;7.50;99.90
61253;DHT22;47127;47.516;8.596;2022-11-20T08:32:53;7.60;99.90
61253;DHT22;47127;47.516;8.596;2022-11-20T08:35:19;7.70;99.90
61253;DHT22;47127;47.516;8.596;2022-11-20T08:37:48;7.70;99.90
61253;DHT22;47127;47.516;8.596;2022-11-20T08:40:13;7.70;99.90
61253;DHT22;47127;47.516;8.596;2022-11-20T08:42:51;7.70;99.90
61253;DHT22;47127;47.516;8.596;2022-11-20T08:45:17;7.80;99.90
61253;DHT22;47127;47.516;8.596;2022-11-20T08:47:43;7.90;99.90
61253;DHT22;47127;47.516;8.596;2022-11-20T08:50:09;7.90;99.90
61253;DHT22;47127;47.516;8.596;2022-11-20T08:52:34;8.00;99.90
61253;DHT22;47127;47.516;8.596;2022-11-20T08:55:00;8.10;99.90
61253;DHT22;47127;47.516;8.596;2022-11-20T08:57:25;8.20;99.90
61253;DHT22;47127;47.516;8.596;2022-11-20T08:59:51;8.30;99.90
61253;DHT22;47127;47.516;8.596;2022-11-20T09:02:16;8.40;99.90
61253;DHT22;47127;47.516;8.596;2022-11-20T09:04:42;8.40;99.90
61253;DHT22;47127;47.516;8.596;2022-11-20T09:07:07;8.60;99.90
61253;DHT22;47127;47.516;8.596;2022-11-20T09:09:33;8.70;99.90
61253;DHT22;47127;47.516;8.596;2022-11-20T09:11:58;8.70;99.90
61253;DHT22;47127;47.516;8.596;2022-11-20T09:14:24;8.60;99.90
61253;DHT22;47127;47.516;8.596;2022-11-20T09:16:54;8.50;99.90
61253;DHT22;47127;47.516;8.596;2022-11-20T09:19:20;8.40;99.90
61253;DHT22;47127;47.516;8.596;2022-11-20T09:21:45;8.20;99.90
61253;DHT22;47127;47.516;8.596;2022-11-20T09:24:11;8.30;99.90
61253;DHT22;47127;47.516;8.596;2022-11-20T09:26:36;8.30;99.90
61253;DHT22;47127;47.516;8.596;2022-11-20T09:29:01;8.30;99.90
61253;DHT22;47127;47.516;8.596;2022-11-20T09:31:27;8.30;99.90
61253;DHT22;47127;47.516;8.596;2022-11-20T09:33:52;8.40;99.90
61253;DHT22;47127;47.516;8.596;2022-11-20T09:36:18;8.40;99.90
61253;DHT22;47127;47.516;8.596;2022-11-20T09:38:44;8.40;99.90
61253;DHT22;47127;47.516;8.596;2022-11-20T09:41:18;8.30;99.90
61253;DHT22;47127;47.516;8.596;2022-11-20T09:43:51;8.30;99.90
61253;DHT22;47127;47.516;8.596;2022-11-20T09:46:39;8.20;99.90
61253;DHT22;47127;47.516;8.596;2022-11-20T09:51:53;7.80;99.90
61253;DHT22;47127;47.516;8.596;2022-11-20T09:54:22;7.90;99.90
61253;DHT22;47127;47.516;8.596;2022-11-20T09:57:02;7.90;99.90
61253;DHT22;47127;47.516;8.596;2022-11-20T09:59:45;7.90;99.90
61253;DHT22;47127;47.516;8.596;2022-11-20T10:02:16;7.70;99.90
61253;DHT22;47127;47.516;8.596;2022-11-20T10:04:44;7.90;99.90
61253;DHT22;47127;47.516;8.596;2022-11-20T10:07:34;8.10;99.90
61253;DHT22;47127;47.516;8.596;2022-11-20T10:10:00;8.10;99.90
61253;DHT22;47127;47.516;8.596;2022-11-20T10:20:25;8.80;99.90
61253;DHT22;47127;47.516;8.596;2022-11-20T10:23:00;8.90;99.90
61253;DHT22;47127;47.516;8.596;2022-11-20T10:25:39;9.10;99.90
61253;DHT22;47127;47.516;8.596;2022-11-20T10:30:56;9.10;99.90
61253;DHT22;47127;47.516;8.596;2022-11-20T10:33:22;9.00;99.90
61253;DHT22;47127;47.516;8.596;2022-11-20T10:38:51;9.00;99.90
61253;DHT22;47127;47.516;8.596;2022-11-20T10:41:17;8.70;99.90
61253;DHT22;47127;47.516;8.596;2022-11-20T10:44:33;8.60;99.90
61253;DHT22;47127;47.516;8.596;2022-11-20T10:46:40;8.70;99.90
61253;DHT22;47127;47.516;8.596;2022-11-20T10:49:11;8.90;99.90
61253;DHT22;47127;47.516;8.596;2022-11-20T10:54:12;9.30;99.90
61253;DHT22;47127;47.516;8.596;2022-11-20T10:59:14;9.20;99.90
61253;DHT22;47127;47.516;8.596;2022-11-20T11:01:46;9.20;99.90
61253;DHT22;47127;47.516;8.596;2022-11-20T11:04:18;9.00;99.90
61253;DHT22;47127;47.516;8.596;2022-11-20T11:06:49;9.00;99.90
61253;DHT22;47127;47.516;8.596;2022-11-20T11:09:21;8.90;99.90
61253;DHT22;47127;47.516;8.596;2022-11-20T11:11:49;8.60;99.90
61253;DHT22;47127;47.516;8.596;2022-11-20T11:14:15;8.60;99.90
61253;DHT22;47127;47.516;8.596;2022-11-20T11:16:48;8.40;99.90
61253;DHT22;47127;47.516;8.596;2022-11-20T11:19:14;8.40;99.90
61253;DHT22;47127;47.516;8.596;2022-11-20T11:21:53;8.30;99.90
61253;DHT22;47127;47.516;8.596;2022-11-20T11:24:28;8.40;99.90
61253;DHT22;47127;47.516;8.596;2022-11-20T11:29:22;8.60;99.90
61253;DHT22;47127;47.516;8.596;2022-11-20T11:31:49;8.60;99.90
61253;DHT22;47127;47.516;8.596;2022-11-20T11:34:15;8.60;99.90
61253;DHT22;47127;47.516;8.596;2022-11-20T11:36:41;8.60;99.90
61253;DHT22;47127;47.516;8.596;2022-11-20T11:39:11;8.70;99.90
61253;DHT22;47127;47.516;8.596;2022-11-20T11:41:39;8.70;99.90
61253;DHT22;47127;47.516;8.596;2022-11-20T11:44:21;8.80;99.90
61253;DHT22;47127;47.516;8.596;2022-11-20T11:47:08;8.80;99.90
61253;DHT22;47127;47.516;8.596;2022-11-20T11:49:35;8.90;99.90
61253;DHT22;47127;47.516;8.596;2022-11-20T11:54:34;9.00;99.90
61253;DHT22;47127;47.516;8.596;2022-11-20T11:57:05;9.00;99.90
61253;DHT22;47127;47.516;8.596;2022-11-20T11:59:54;9.00;99.90
61253;DHT22;47127;47.516;8.596;2022-11-20T12:02:36;9.00;99.90
61253;DHT22;47127;47.516;8.596;2022-11-20T12:05:21;9.00;99.90
61253;DHT22;47127;47.516;8.596;2022-11-20T12:10:39;8.90;99.90
61253;DHT22;47127;47.516;8.596;2022-11-20T12:13:18;9.00;99.90
61253;DHT22;47127;47.516;8.596;2022-11-20T12:15:46;8.90;99.90
61253;DHT22;47127;47.516;8.596;2022-11-20T12:18:19;9.10;99.90
61253;DHT22;47127;47.516;8.596;2022-11-20T12:26:19;9.00;99.90
61253;DHT22;47127;47.516;8.596;2022-11-20T12:28:56;9.20;99.90
61253;DHT22;47127;47.516;8.596;2022-11-20T12:31:34;9.20;99.90
61253;DHT22;47127;47.516;8.596;2022-11-20T12:34:13;9.40;99.90
61253;DHT22;47127;47.516;8.596;2022-11-20T12:36:49;9.50;99.90
61253;DHT22;47127;47.516;8.596;2022-11-20T12:44:44;9.90;99.90
61253;DHT22;47127;47.516;8.596;2022-11-20T12:50:18;9.80;99.90
61253;DHT22;47127;47.516;8.596;2022-11-20T12:52:50;9.80;99.90
61253;DHT22;47127;47.516;8.596;2022-11-20T12:55:28;10.10;99.90
61253;DHT22;47127;47.516;8.596;2022-11-20T13:00:22;9.90;99.90
61253;DHT22;47127;47.516;8.596;2022-11-20T13:08:02;10.50;99.90
61253;DHT22;47127;47.516;8.596;2022-11-20T13:18:12;10.10;99.90
61253;DHT22;47127;47.516;8.596;2022-11-20T13:20:45;10.00;99.90
61253;DHT22;47127;47.516;8.596;2022-11-20T13:23:10;10.10;99.90
61253;DHT22;47127;47.516;8.596;2022-11-20T13:25:37;10.00;99.90
61253;DHT22;47127;47.516;8.596;2022-11-20T13:30:34;9.70;99.90
61253;DHT22;47127;47.516;8.596;2022-11-20T13:33:07;9.50;99.90
61253;DHT22;47127;47.516;8.596;2022-11-20T13:36:20;9.60;99.90
61253;DHT22;47127;47.516;8.596;2022-11-20T13:38:22;9.60;99.90
61253;DHT22;47127;47.516;8.596;2022-11-20T13:40:58;9.70;99.90
61253;DHT22;47127;47.516;8.596;2022-11-20T13:45:59;10.00;99.90
61253;DHT22;47127;47.516;8.596;2022-11-20T13:48:26;10.10;99.90
61253;DHT22;47127;47.516;8.596;2022-11-20T13:51:07;10.30;99.90
61253;DHT22;47127;47.516;8.596;2022-11-20T13:56:04;10.30;99.90
61253;DHT22;47127;47.516;8.596;2022-11-20T14:01:20;10.60;99.90
61253;DHT22;47127;47.516;8.596;2022-11-20T14:03:46;10.70;99.90
61253;DHT22;47127;47.516;8.596;2022-11-20T14:06:45;10.70;99.90
61253;DHT22;47127;47.516;8.596;2022-11-20T14:09:03;11.00;99.90
61253;DHT22;47127;47.516;8.596;2022-11-20T14:11:29;11.00;99.90
61253;DHT22;47127;47.516;8.596;2022-11-20T14:14:02;10.90;99.90
61253;DHT22;47127;47.516;8.596;2022-11-20T14:16:29;10.70;99.90
61253;DHT22;47127;47.516;8.596;2022-11-20T14:18:55;10.50;99.90
61253;DHT22;47127;47.516;8.596;2022-11-20T14:21:23;10.40;99.90
61253;DHT22;47127;47.516;8.596;2022-11-20T14:23:49;10.20;99.90
61253;DHT22;47127;47.516;8.596;2022-11-20T14:26:17;10.00;99.90
61253;DHT22;47127;47.516;8.596;2022-11-20T14:28:47;9.70;99.90
61253;DHT22;47127;47.516;8.596;2022-11-20T14:31:17;9.70;99.90
61253;DHT22;47127;47.516;8.596;2022-11-20T14:33:44;9.70;99.90
61253;DHT22;47127;47.516;8.596;2022-11-20T14:36:15;9.70;99.90
61253;DHT22;47127;47.516;8.596;2022-11-20T14:38:41;9.70;99.90
61253;DHT22;47127;47.516;8.596;2022-11-20T14:41:08;9.90;99.90
61253;DHT22;47127;47.516;8.596;2022-11-20T14:43:34;10.20;99.90
61253;DHT22;47127;47.516;8.596;2022-11-20T14:46:02;10.30;99.90
61253;DHT22;47127;47.516;8.596;2022-11-20T14:48:29;10.30;99.90
61253;DHT22;47127;47.516;8.596;2022-11-20T14:50:56;10.00;99.90
61253;DHT22;47127;47.516;8.596;2022-11-20T14:53:23;10.10;99.90
61253;DHT22;47127;47.516;8.596;2022-11-20T14:55:54;10.50;99.90
61253;DHT22;47127;47.516;8.596;2022-11-20T14:58:21;11.00;99.90
61253;DHT22;47127;47.516;8.596;2022-11-20T15:00:56;11.40;99.90
61253;DHT22;47127;47.516;8.596;2022-11-20T15:03:22;11.80;99.90
61253;DHT22;47127;47.516;8.596;2022-11-20T15:05:48;12.10;99.60
61253;DHT22;47127;47.516;8.596;2022-11-20T15:08:14;11.60;99.90
61253;DHT22;47127;47.516;8.596;2022-11-20T15:10:45;11.00;99.90
61253;DHT22;47127;47.516;8.596;2022-11-20T15:13:11;10.60;99.90
61253;DHT22;47127;47.516;8.596;2022-11-20T15:18:10;10.10;99.90
61253;DHT22;47127;47.516;8.596;2022-11-20T15:20:36;9.90;99.90
61253;DHT22;47127;47.516;8.596;2022-11-20T15:23:01;9.80;99.90
61253;DHT22;47127;47.516;8.596;2022-11-20T15:25:27;9.60;99.90
61253;DHT22;47127;47.516;8.596;2022-11-20T15:27:54;9.50;99.90
61253;DHT22;47127;47.516;8.596;2022-11-20T15:30:21;9.50;99.90
61253;DHT22;47127;47.516;8.596;2022-11-20T15:32:46;9.40;99.90
61253;DHT22;47127;47.516;8.596;2022-11-20T15:35:13;9.20;99.90
61253;DHT22;47127;47.516;8.596;2022-11-20T15:37:38;9.10;99.90
61253;DHT22;47127;47.516;8.596;2022-11-20T15:40:04;9.10;99.90
61253;DHT22;47127;47.516;8.596;2022-11-20T15:42:30;8.90;99.90
61253;DHT22;47127;47.516;8.596;2022-11-20T15:44:55;8.90;99.90
61253;DHT22;47127;47.516;8.596;2022-11-20T15:47:21;8.80;99.90
61253;DHT22;47127;47.516;8.596;2022-11-20T15:49:48;8.70;99.90
61253;DHT22;47127;47.516;8.596;2022-11-20T15:52:14;8.60;99.90
61253;DHT22;47127;47.516;8.596;2022-11-20T15:54:39;8.50;99.90
61253;DHT22;47127;47.516;8.596;2022-11-20T15:57:05;8.40;99.90
61253;DHT22;47127;47.516;8.596;2022-11-20T15:59:31;8.30;99.90
61253;DHT22;47127;47.516;8.596;2022-11-20T16:01:56;8.30;99.90
61253;DHT22;47127;47.516;8.596;2022-11-20T16:04:22;8.10;99.90
61253;DHT22;47127;47.516;8.596;2022-11-20T16:06:47;7.90;99.90
61253;DHT22;47127;47.516;8.596;2022-11-20T16:09:13;7.90;99.90
61253;DHT22;47127;47.516;8.596;2022-11-20T16:11:38;7.80;99.90
61253;DHT22;47127;47.516;8.596;2022-11-20T16:14:04;7.80;99.90
61253;DHT22;47127;47.516;8.596;2022-11-20T16:16:48;7.80;99.90
61253;DHT22;47127;47.516;8.596;2022-11-20T16:19:14;7.60;99.90
61253;DHT22;47127;47.516;8.596;2022-11-20T16:21:40;7.50;99.90
61253;DHT22;47127;47.516;8.596;2022-11-20T16:24:07;7.50;99.90
61253;DHT22;47127;47.516;8.596;2022-11-20T16:26:33;7.40;99.90
61253;DHT22;47127;47.516;8.596;2022-11-20T16:28:59;7.40;99.90
61253;DHT22;47127;47.516;8.596;2022-11-20T16:31:25;7.50;99.90
61253;DHT22;47127;47.516;8.596;2022-11-20T16:33:51;7.50;99.90
61253;DHT22;47127;47.516;8.596;2022-11-20T16:36:17;7.50;99.90
61253;DHT22;47127;47.516;8.596;2022-11-20T16:38:42;7.50;99.90
61253;DHT22;47127;47.516;8.596;2022-11-20T16:41:08;7.50;99.90
61253;DHT22;47127;47.516;8.596;2022-11-20T16:43:49;7.50;99.90
61253;DHT22;47127;47.516;8.596;2022-11-20T16:46:19;7.50;99.90
61253;DHT22;47127;47.516;8.596;2022-11-20T16:48:48;7.50;99.90
61253;DHT22;47127;47.516;8.596;2022-11-20T16:51:16;7.40;99.90
61253;DHT22;47127;47.516;8.596;2022-11-20T16:53:42;7.00;99.90
61253;DHT22;47127;47.516;8.596;2022-11-20T16:56:08;6.90;99.90
61253;DHT22;47127;47.516;8.596;2022-11-20T16:58:34;6.80;99.90
61253;DHT22;47127;47.516;8.596;2022-11-20T17:01:09;6.90;99.90
61253;DHT22;47127;47.516;8.596;2022-11-20T17:03:36;7.00;99.90
61253;DHT22;47127;47.516;8.596;2022-11-20T17:06:02;7.00;99.90
61253;DHT22;47127;47.516;8.596;2022-11-20T17:08:34;7.10;99.90